sensor_id;sensor_type;location;lat;lon;timestamp;P1;durP1;ratioP1;P2;durP2;ratioP2
45326;SDS011;31062;49.678;24.560;2023-05-25T00:00:16;9.95;;;6.03;;
45326;SDS011;31062;49.678;24.560;2023-05-25T00:03:03;7.97;;;6.60;;
45326;SDS011;31062;49.678;24.560;2023-05-25T00:05:49;6.93;;;6.22;;
45326;SDS011;31062;49.678;24.560;2023-05-25T00:08:38;12.00;;;7.25;;
45326;SDS011;31062;49.678;24.560;2023-05-25T00:11:24;7.78;;;6.47;;
45326;SDS011;31062;49.678;24.560;2023-05-25T00:14:12;11.55;;;7.50;;
45326;SDS011;31062;49.678;24.560;2023-05-25T00:16:58;11.15;;;7.35;;
45326;SDS011;31062;49.678;24.560;2023-05-25T00:19:48;10.57;;;7.70;;
45326;SDS011;31062;49.678;24.560;2023-05-25T00:22:35;9.57;;;7.85;;
45326;SDS011;31062;49.678;24.560;2023-05-25T00:25:20;10.82;;;8.52;;
45326;SDS011;31062;49.678;24.560;2023-05-25T00:28:06;11.07;;;9.20;;
45326;SDS011;31062;49.678;24.560;2023-05-25T00:30:51;15.07;;;9.35;;
45326;SDS011;31062;49.678;24.560;2023-05-25T00:33:37;11.32;;;9.52;;
45326;SDS011;31062;49.678;24.560;2023-05-25T00:36:23;11.88;;;9.13;;
45326;SDS011;31062;49.678;24.560;2023-05-25T00:39:08;12.73;;;9.57;;
45326;SDS011;31062;49.678;24.560;2023-05-25T00:41:56;12.00;;;8.95;;
45326;SDS011;31062;49.678;24.560;2023-05-25T00:44:43;11.07;;;9.45;;
45326;SDS011;31062;49.678;24.560;2023-05-25T00:47:28;13.75;;;8.73;;
45326;SDS011;31062;49.678;24.560;2023-05-25T00:50:14;10.63;;;8.95;;
45326;SDS011;31062;49.678;24.560;2023-05-25T00:53:01;13.90;;;8.80;;
45326;SDS011;31062;49.678;24.560;2023-05-25T00:58:41;11.65;;;9.30;;
45326;SDS011;31062;49.678;24.560;2023-05-25T01:01:27;10.25;;;9.13;;
45326;SDS011;31062;49.678;24.560;2023-05-25T01:04:17;11.93;;;9.50;;
45326;SDS011;31062;49.678;24.560;2023-05-25T01:07:05;14.18;;;9.77;;
45326;SDS011;31062;49.678;24.560;2023-05-25T01:09:56;12.55;;;9.32;;
45326;SDS011;31062;49.678;24.560;2023-05-25T01:12:44;10.50;;;8.80;;
45326;SDS011;31062;49.678;24.560;2023-05-25T01:15:30;9.52;;;8.57;;
45326;SDS011;31062;49.678;24.560;2023-05-25T01:18:18;16.00;;;9.40;;
45326;SDS011;31062;49.678;24.560;2023-05-25T01:21:18;10.48;;;8.88;;
45326;SDS011;31062;49.678;24.560;2023-05-25T01:24:11;10.43;;;9.43;;
45326;SDS011;31062;49.678;24.560;2023-05-25T01:27:08;10.80;;;9.13;;
45326;SDS011;31062;49.678;24.560;2023-05-25T01:30:31;12.93;;;9.23;;
45326;SDS011;31062;49.678;24.560;2023-05-25T01:33:17;11.75;;;9.63;;
45326;SDS011;31062;49.678;24.560;2023-05-25T01:36:03;12.23;;;9.30;;
45326;SDS011;31062;49.678;24.560;2023-05-25T01:38:49;12.15;;;10.73;;
45326;SDS011;31062;49.678;24.560;2023-05-25T01:41:35;12.70;;;9.57;;
45326;SDS011;31062;49.678;24.560;2023-05-25T01:44:21;13.57;;;10.80;;
45326;SDS011;31062;49.678;24.560;2023-05-25T01:47:09;13.93;;;10.30;;
45326;SDS011;31062;49.678;24.560;2023-05-25T01:50:06;13.02;;;10.50;;
45326;SDS011;31062;49.678;24.560;2023-05-25T01:53:02;12.50;;;10.25;;
45326;SDS011;31062;49.678;24.560;2023-05-25T01:55:54;11.25;;;9.98;;
45326;SDS011;31062;49.678;24.560;2023-05-25T01:58:53;12.68;;;10.27;;
45326;SDS011;31062;49.678;24.560;2023-05-25T02:01:42;15.13;;;10.63;;
45326;SDS011;31062;49.678;24.560;2023-05-25T02:04:28;13.50;;;11.45;;
45326;SDS011;31062;49.678;24.560;2023-05-25T02:07:14;13.68;;;10.75;;
45326;SDS011;31062;49.678;24.560;2023-05-25T02:09:59;19.27;;;12.10;;
45326;SDS011;31062;49.678;24.560;2023-05-25T02:12:45;15.27;;;12.23;;
45326;SDS011;31062;49.678;24.560;2023-05-25T02:15:31;15.98;;;10.77;;
45326;SDS011;31062;49.678;24.560;2023-05-25T02:18:20;15.82;;;11.38;;
45326;SDS011;31062;49.678;24.560;2023-05-25T02:21:06;14.40;;;11.38;;
45326;SDS011;31062;49.678;24.560;2023-05-25T02:23:51;14.18;;;11.40;;
45326;SDS011;31062;49.678;24.560;2023-05-25T02:26:38;15.20;;;11.25;;
45326;SDS011;31062;49.678;24.560;2023-05-25T02:29:23;13.93;;;11.20;;
45326;SDS011;31062;49.678;24.560;2023-05-25T02:32:08;13.80;;;11.45;;
45326;SDS011;31062;49.678;24.560;2023-05-25T02:34:54;15.57;;;12.50;;
45326;SDS011;31062;49.678;24.560;2023-05-25T02:37:40;27.25;;;22.20;;
45326;SDS011;31062;49.678;24.560;2023-05-25T02:40:26;12.38;;;8.73;;
45326;SDS011;31062;49.678;24.560;2023-05-25T02:43:11;10.20;;;6.97;;
45326;SDS011;31062;49.678;24.560;2023-05-25T02:45:56;9.57;;;6.97;;
45326;SDS011;31062;49.678;24.560;2023-05-25T02:48:41;6.65;;;6.00;;
45326;SDS011;31062;49.678;24.560;2023-05-25T02:51:27;11.52;;;7.65;;
45326;SDS011;31062;49.678;24.560;2023-05-25T02:54:16;10.10;;;6.82;;
45326;SDS011;31062;49.678;24.560;2023-05-25T02:57:02;8.30;;;7.00;;
45326;SDS011;31062;49.678;24.560;2023-05-25T02:59:49;7.88;;;6.35;;
45326;SDS011;31062;49.678;24.560;2023-05-25T03:02:36;15.80;;;7.35;;
45326;SDS011;31062;49.678;24.560;2023-05-25T03:05:22;14.45;;;7.38;;
45326;SDS011;31062;49.678;24.560;2023-05-25T03:08:09;15.95;;;8.68;;
45326;SDS011;31062;49.678;24.560;2023-05-25T03:10:54;11.75;;;7.63;;
45326;SDS011;31062;49.678;24.560;2023-05-25T03:13:39;16.10;;;8.80;;
45326;SDS011;31062;49.678;24.560;2023-05-25T03:16:25;14.95;;;8.98;;
45326;SDS011;31062;49.678;24.560;2023-05-25T03:19:11;12.48;;;8.55;;
45326;SDS011;31062;49.678;24.560;2023-05-25T03:21:57;11.68;;;8.98;;
45326;SDS011;31062;49.678;24.560;2023-05-25T03:24:42;14.38;;;8.50;;
45326;SDS011;31062;49.678;24.560;2023-05-25T03:27:28;12.30;;;8.85;;
45326;SDS011;31062;49.678;24.560;2023-05-25T03:30:14;10.95;;;7.78;;
45326;SDS011;31062;49.678;24.560;2023-05-25T03:33:00;12.75;;;8.38;;
45326;SDS011;31062;49.678;24.560;2023-05-25T03:35:52;9.70;;;8.50;;
45326;SDS011;31062;49.678;24.560;2023-05-25T03:38:37;11.27;;;7.72;;
45326;SDS011;31062;49.678;24.560;2023-05-25T03:41:22;9.68;;;8.07;;
45326;SDS011;31062;49.678;24.560;2023-05-25T03:44:08;11.15;;;7.80;;
45326;SDS011;31062;49.678;24.560;2023-05-25T03:46:55;10.32;;;7.82;;
45326;SDS011;31062;49.678;24.560;2023-05-25T03:49:41;10.15;;;7.95;;
45326;SDS011;31062;49.678;24.560;2023-05-25T03:52:26;9.90;;;8.10;;
45326;SDS011;31062;49.678;24.560;2023-05-25T03:55:13;8.73;;;7.93;;
45326;SDS011;31062;49.678;24.560;2023-05-25T03:58:02;8.48;;;7.60;;
45326;SDS011;31062;49.678;24.560;2023-05-25T04:00:47;9.13;;;8.23;;
45326;SDS011;31062;49.678;24.560;2023-05-25T04:03:36;12.40;;;7.85;;
45326;SDS011;31062;49.678;24.560;2023-05-25T04:06:22;10.77;;;9.13;;
45326;SDS011;31062;49.678;24.560;2023-05-25T04:09:10;10.02;;;9.00;;
45326;SDS011;31062;49.678;24.560;2023-05-25T04:11:56;10.50;;;8.32;;
45326;SDS011;31062;49.678;24.560;2023-05-25T04:14:41;11.40;;;8.57;;
45326;SDS011;31062;49.678;24.560;2023-05-25T04:17:27;13.50;;;9.35;;
45326;SDS011;31062;49.678;24.560;2023-05-25T04:20:13;13.45;;;9.55;;
45326;SDS011;31062;49.678;24.560;2023-05-25T04:22:58;10.02;;;9.02;;
45326;SDS011;31062;49.678;24.560;2023-05-25T04:25:44;13.30;;;10.60;;
45326;SDS011;31062;49.678;24.560;2023-05-25T04:28:31;11.20;;;9.98;;
45326;SDS011;31062;49.678;24.560;2023-05-25T04:31:30;15.90;;;10.98;;
45326;SDS011;31062;49.678;24.560;2023-05-25T04:34:36;20.85;;;15.15;;
45326;SDS011;31062;49.678;24.560;2023-05-25T04:37:31;23.02;;;15.27;;
45326;SDS011;31062;49.678;24.560;2023-05-25T04:40:17;21.15;;;17.13;;
45326;SDS011;31062;49.678;24.560;2023-05-25T04:43:06;26.88;;;17.10;;
45326;SDS011;31062;49.678;24.560;2023-05-25T04:45:53;22.63;;;17.00;;
45326;SDS011;31062;49.678;24.560;2023-05-25T04:48:39;22.80;;;16.17;;
45326;SDS011;31062;49.678;24.560;2023-05-25T04:51:25;24.15;;;16.42;;
45326;SDS011;31062;49.678;24.560;2023-05-25T04:54:10;24.33;;;15.75;;
45326;SDS011;31062;49.678;24.560;2023-05-25T04:56:56;22.23;;;15.95;;
45326;SDS011;31062;49.678;24.560;2023-05-25T04:59:42;24.38;;;15.35;;
45326;SDS011;31062;49.678;24.560;2023-05-25T05:02:27;22.00;;;16.40;;
45326;SDS011;31062;49.678;24.560;2023-05-25T05:05:14;20.30;;;16.15;;
45326;SDS011;31062;49.678;24.560;2023-05-25T05:08:02;23.65;;;16.23;;
45326;SDS011;31062;49.678;24.560;2023-05-25T05:10:48;24.98;;;15.90;;
45326;SDS011;31062;49.678;24.560;2023-05-25T05:13:35;24.60;;;16.85;;
45326;SDS011;31062;49.678;24.560;2023-05-25T05:16:20;25.05;;;16.65;;
45326;SDS011;31062;49.678;24.560;2023-05-25T05:19:06;23.73;;;17.27;;
45326;SDS011;31062;49.678;24.560;2023-05-25T05:21:51;24.38;;;16.40;;
45326;SDS011;31062;49.678;24.560;2023-05-25T05:24:37;20.88;;;16.05;;
45326;SDS011;31062;49.678;24.560;2023-05-25T05:27:23;22.10;;;16.77;;
45326;SDS011;31062;49.678;24.560;2023-05-25T05:30:15;25.13;;;17.13;;
45326;SDS011;31062;49.678;24.560;2023-05-25T05:33:01;22.13;;;14.57;;
45326;SDS011;31062;49.678;24.560;2023-05-25T05:35:52;22.08;;;15.70;;
45326;SDS011;31062;49.678;24.560;2023-05-25T05:38:40;23.17;;;15.40;;
45326;SDS011;31062;49.678;24.560;2023-05-25T05:41:26;23.80;;;16.25;;
45326;SDS011;31062;49.678;24.560;2023-05-25T05:44:15;24.58;;;16.50;;
45326;SDS011;31062;49.678;24.560;2023-05-25T05:47:00;28.92;;;16.60;;
45326;SDS011;31062;49.678;24.560;2023-05-25T05:49:47;22.77;;;15.60;;
45326;SDS011;31062;49.678;24.560;2023-05-25T05:52:33;20.27;;;16.42;;
45326;SDS011;31062;49.678;24.560;2023-05-25T05:55:19;22.08;;;16.80;;
45326;SDS011;31062;49.678;24.560;2023-05-25T05:58:07;27.88;;;17.38;;
45326;SDS011;31062;49.678;24.560;2023-05-25T06:00:53;22.20;;;15.65;;
45326;SDS011;31062;49.678;24.560;2023-05-25T06:03:40;19.55;;;15.90;;
45326;SDS011;31062;49.678;24.560;2023-05-25T06:06:26;29.98;;;15.15;;
45326;SDS011;31062;49.678;24.560;2023-05-25T06:09:12;24.75;;;16.10;;
45326;SDS011;31062;49.678;24.560;2023-05-25T06:11:58;19.52;;;16.45;;
45326;SDS011;31062;49.678;24.560;2023-05-25T06:14:45;18.40;;;14.70;;
45326;SDS011;31062;49.678;24.560;2023-05-25T06:17:34;22.13;;;16.02;;
45326;SDS011;31062;49.678;24.560;2023-05-25T06:20:22;18.63;;;14.90;;
45326;SDS011;31062;49.678;24.560;2023-05-25T06:23:07;22.33;;;16.33;;
45326;SDS011;31062;49.678;24.560;2023-05-25T06:25:55;23.48;;;15.52;;
45326;SDS011;31062;49.678;24.560;2023-05-25T06:28:41;20.83;;;14.82;;
45326;SDS011;31062;49.678;24.560;2023-05-25T06:31:27;22.90;;;15.90;;
45326;SDS011;31062;49.678;24.560;2023-05-25T06:34:13;19.00;;;14.60;;
45326;SDS011;31062;49.678;24.560;2023-05-25T06:37:04;27.65;;;15.88;;
45326;SDS011;31062;49.678;24.560;2023-05-25T06:39:54;19.92;;;14.18;;
45326;SDS011;31062;49.678;24.560;2023-05-25T06:42:42;19.02;;;14.93;;
45326;SDS011;31062;49.678;24.560;2023-05-25T06:45:49;19.30;;;15.05;;
45326;SDS011;31062;49.678;24.560;2023-05-25T06:48:37;23.00;;;16.40;;
45326;SDS011;31062;49.678;24.560;2023-05-25T06:51:24;23.10;;;15.07;;
45326;SDS011;31062;49.678;24.560;2023-05-25T06:54:11;20.92;;;15.02;;
45326;SDS011;31062;49.678;24.560;2023-05-25T06:57:03;21.42;;;16.40;;
45326;SDS011;31062;49.678;24.560;2023-05-25T06:59:48;20.55;;;15.73;;
45326;SDS011;31062;49.678;24.560;2023-05-25T07:02:34;21.67;;;15.30;;
45326;SDS011;31062;49.678;24.560;2023-05-25T07:05:20;22.83;;;16.08;;
45326;SDS011;31062;49.678;24.560;2023-05-25T07:08:07;21.75;;;15.02;;
45326;SDS011;31062;49.678;24.560;2023-05-25T07:10:54;19.92;;;15.43;;
45326;SDS011;31062;49.678;24.560;2023-05-25T07:13:41;23.35;;;14.45;;
45326;SDS011;31062;49.678;24.560;2023-05-25T07:16:27;21.80;;;15.13;;
45326;SDS011;31062;49.678;24.560;2023-05-25T07:19:13;26.73;;;15.18;;
45326;SDS011;31062;49.678;24.560;2023-05-25T07:21:59;18.65;;;15.13;;
45326;SDS011;31062;49.678;24.560;2023-05-25T07:24:45;21.45;;;14.38;;
45326;SDS011;31062;49.678;24.560;2023-05-25T07:27:31;19.02;;;14.43;;
45326;SDS011;31062;49.678;24.560;2023-05-25T07:30:17;24.15;;;14.80;;
45326;SDS011;31062;49.678;24.560;2023-05-25T07:33:03;24.67;;;14.30;;
45326;SDS011;31062;49.678;24.560;2023-05-25T07:35:57;17.98;;;14.32;;
45326;SDS011;31062;49.678;24.560;2023-05-25T07:38:42;21.13;;;13.48;;
45326;SDS011;31062;49.678;24.560;2023-05-25T07:41:28;19.98;;;14.02;;
45326;SDS011;31062;49.678;24.560;2023-05-25T07:44:14;17.23;;;14.30;;
45326;SDS011;31062;49.678;24.560;2023-05-25T07:46:59;19.75;;;15.05;;
45326;SDS011;31062;49.678;24.560;2023-05-25T07:49:46;19.23;;;14.10;;
45326;SDS011;31062;49.678;24.560;2023-05-25T07:52:35;20.23;;;14.63;;
45326;SDS011;31062;49.678;24.560;2023-05-25T07:55:25;19.23;;;15.18;;
45326;SDS011;31062;49.678;24.560;2023-05-25T07:58:11;20.75;;;14.57;;
45326;SDS011;31062;49.678;24.560;2023-05-25T08:00:56;16.48;;;13.93;;
45326;SDS011;31062;49.678;24.560;2023-05-25T08:03:42;19.05;;;13.20;;
45326;SDS011;31062;49.678;24.560;2023-05-25T08:06:34;20.38;;;15.50;;
45326;SDS011;31062;49.678;24.560;2023-05-25T08:09:23;18.55;;;14.93;;
45326;SDS011;31062;49.678;24.560;2023-05-25T08:12:08;17.55;;;14.48;;
45326;SDS011;31062;49.678;24.560;2023-05-25T08:15:15;17.27;;;13.43;;
45326;SDS011;31062;49.678;24.560;2023-05-25T08:18:02;26.55;;;14.70;;
45326;SDS011;31062;49.678;24.560;2023-05-25T08:21:01;18.33;;;13.20;;
45326;SDS011;31062;49.678;24.560;2023-05-25T08:23:47;17.08;;;14.45;;
45326;SDS011;31062;49.678;24.560;2023-05-25T08:26:35;23.27;;;14.07;;
45326;SDS011;31062;49.678;24.560;2023-05-25T08:29:38;19.35;;;13.65;;
45326;SDS011;31062;49.678;24.560;2023-05-25T08:32:24;19.13;;;14.05;;
45326;SDS011;31062;49.678;24.560;2023-05-25T08:35:10;15.52;;;13.40;;
45326;SDS011;31062;49.678;24.560;2023-05-25T08:37:58;17.83;;;12.88;;
45326;SDS011;31062;49.678;24.560;2023-05-25T08:40:44;22.95;;;14.52;;
45326;SDS011;31062;49.678;24.560;2023-05-25T08:43:33;19.13;;;13.10;;
45326;SDS011;31062;49.678;24.560;2023-05-25T08:46:27;17.55;;;13.43;;
45326;SDS011;31062;49.678;24.560;2023-05-25T08:49:17;18.25;;;13.43;;
45326;SDS011;31062;49.678;24.560;2023-05-25T08:52:03;20.40;;;13.70;;
45326;SDS011;31062;49.678;24.560;2023-05-25T08:54:56;17.55;;;11.43;;
45326;SDS011;31062;49.678;24.560;2023-05-25T08:57:49;23.42;;;12.23;;
45326;SDS011;31062;49.678;24.560;2023-05-25T09:00:38;18.35;;;12.45;;
45326;SDS011;31062;49.678;24.560;2023-05-25T09:03:29;12.60;;;11.40;;
45326;SDS011;31062;49.678;24.560;2023-05-25T09:06:16;18.13;;;11.95;;
45326;SDS011;31062;49.678;24.560;2023-05-25T09:09:03;18.67;;;11.15;;
45326;SDS011;31062;49.678;24.560;2023-05-25T09:11:53;19.05;;;13.40;;
45326;SDS011;31062;49.678;24.560;2023-05-25T09:14:40;16.85;;;13.52;;
45326;SDS011;31062;49.678;24.560;2023-05-25T09:17:29;17.02;;;11.70;;
45326;SDS011;31062;49.678;24.560;2023-05-25T09:20:15;17.50;;;12.23;;
45326;SDS011;31062;49.678;24.560;2023-05-25T09:23:03;18.23;;;11.38;;
45326;SDS011;31062;49.678;24.560;2023-05-25T09:25:55;14.27;;;11.73;;
45326;SDS011;31062;49.678;24.560;2023-05-25T09:28:43;19.27;;;11.55;;
45326;SDS011;31062;49.678;24.560;2023-05-25T09:31:31;14.77;;;12.00;;
45326;SDS011;31062;49.678;24.560;2023-05-25T09:34:17;15.77;;;12.50;;
45326;SDS011;31062;49.678;24.560;2023-05-25T09:37:12;17.00;;;11.65;;
45326;SDS011;31062;49.678;24.560;2023-05-25T09:40:09;19.70;;;11.23;;
45326;SDS011;31062;49.678;24.560;2023-05-25T09:42:56;14.68;;;9.95;;
45326;SDS011;31062;49.678;24.560;2023-05-25T09:45:46;12.05;;;8.98;;
45326;SDS011;31062;49.678;24.560;2023-05-25T09:48:38;11.43;;;8.32;;
45326;SDS011;31062;49.678;24.560;2023-05-25T09:51:30;14.35;;;9.88;;
45326;SDS011;31062;49.678;24.560;2023-05-25T09:54:23;17.02;;;10.60;;
45326;SDS011;31062;49.678;24.560;2023-05-25T09:57:16;16.38;;;11.23;;
45326;SDS011;31062;49.678;24.560;2023-05-25T10:00:06;13.90;;;9.35;;
45326;SDS011;31062;49.678;24.560;2023-05-25T10:02:59;15.43;;;9.07;;
45326;SDS011;31062;49.678;24.560;2023-05-25T10:05:47;10.18;;;8.75;;
45326;SDS011;31062;49.678;24.560;2023-05-25T10:08:38;14.65;;;7.65;;
45326;SDS011;31062;49.678;24.560;2023-05-25T10:11:31;11.18;;;8.50;;
45326;SDS011;31062;49.678;24.560;2023-05-25T10:14:26;9.25;;;8.38;;
45326;SDS011;31062;49.678;24.560;2023-05-25T10:17:19;9.70;;;8.23;;
45326;SDS011;31062;49.678;24.560;2023-05-25T10:20:13;8.02;;;7.28;;
45326;SDS011;31062;49.678;24.560;2023-05-25T10:23:13;13.35;;;7.53;;
45326;SDS011;31062;49.678;24.560;2023-05-25T10:26:06;13.23;;;7.00;;
45326;SDS011;31062;49.678;24.560;2023-05-25T10:28:54;12.60;;;8.02;;
45326;SDS011;31062;49.678;24.560;2023-05-25T10:31:48;9.20;;;8.13;;
45326;SDS011;31062;49.678;24.560;2023-05-25T10:34:38;11.48;;;8.27;;
45326;SDS011;31062;49.678;24.560;2023-05-25T10:37:28;8.88;;;7.78;;
45326;SDS011;31062;49.678;24.560;2023-05-25T10:40:19;8.23;;;7.43;;
45326;SDS011;31062;49.678;24.560;2023-05-25T10:43:06;13.13;;;8.05;;
45326;SDS011;31062;49.678;24.560;2023-05-25T10:45:52;10.55;;;7.20;;
45326;SDS011;31062;49.678;24.560;2023-05-25T10:48:47;9.73;;;7.30;;
45326;SDS011;31062;49.678;24.560;2023-05-25T10:51:37;9.15;;;8.07;;
45326;SDS011;31062;49.678;24.560;2023-05-25T10:54:27;12.13;;;8.02;;
45326;SDS011;31062;49.678;24.560;2023-05-25T10:57:18;14.52;;;7.47;;
45326;SDS011;31062;49.678;24.560;2023-05-25T11:00:05;10.32;;;7.53;;
45326;SDS011;31062;49.678;24.560;2023-05-25T11:02:52;11.45;;;7.50;;
45326;SDS011;31062;49.678;24.560;2023-05-25T11:05:40;11.38;;;6.43;;
45326;SDS011;31062;49.678;24.560;2023-05-25T11:14:28;10.90;;;7.63;;
45326;SDS011;31062;49.678;24.560;2023-05-25T11:17:18;9.98;;;7.53;;
45326;SDS011;31062;49.678;24.560;2023-05-25T11:20:04;11.60;;;7.63;;
45326;SDS011;31062;49.678;24.560;2023-05-25T11:22:50;15.57;;;8.68;;
45326;SDS011;31062;49.678;24.560;2023-05-25T11:25:41;14.10;;;6.88;;
45326;SDS011;31062;49.678;24.560;2023-05-25T11:28:30;8.73;;;7.07;;
45326;SDS011;31062;49.678;24.560;2023-05-25T11:31:18;10.68;;;6.68;;
45326;SDS011;31062;49.678;24.560;2023-05-25T11:34:14;9.18;;;6.63;;
45326;SDS011;31062;49.678;24.560;2023-05-25T11:37:00;11.65;;;6.35;;
45326;SDS011;31062;49.678;24.560;2023-05-25T11:39:49;8.40;;;7.18;;
45326;SDS011;31062;49.678;24.560;2023-05-25T11:42:36;8.07;;;6.55;;
45326;SDS011;31062;49.678;24.560;2023-05-25T11:45:22;11.15;;;6.70;;
45326;SDS011;31062;49.678;24.560;2023-05-25T11:48:13;7.30;;;6.55;;
45326;SDS011;31062;49.678;24.560;2023-05-25T11:51:04;8.38;;;6.97;;
45326;SDS011;31062;49.678;24.560;2023-05-25T11:53:50;11.32;;;6.43;;
45326;SDS011;31062;49.678;24.560;2023-05-25T11:56:36;9.35;;;7.03;;
45326;SDS011;31062;49.678;24.560;2023-05-25T11:59:22;7.78;;;6.50;;
45326;SDS011;31062;49.678;24.560;2023-05-25T12:02:10;11.98;;;6.30;;
45326;SDS011;31062;49.678;24.560;2023-05-25T12:04:58;15.00;;;6.65;;
45326;SDS011;31062;49.678;24.560;2023-05-25T12:07:48;8.20;;;6.78;;
45326;SDS011;31062;49.678;24.560;2023-05-25T12:10:37;9.57;;;6.25;;
45326;SDS011;31062;49.678;24.560;2023-05-25T12:16:24;9.25;;;5.93;;
45326;SDS011;31062;49.678;24.560;2023-05-25T12:19:12;9.30;;;5.85;;
45326;SDS011;31062;49.678;24.560;2023-05-25T12:22:01;7.20;;;5.72;;
45326;SDS011;31062;49.678;24.560;2023-05-25T12:24:48;7.40;;;5.63;;
45326;SDS011;31062;49.678;24.560;2023-05-25T12:27:34;6.70;;;6.07;;
45326;SDS011;31062;49.678;24.560;2023-05-25T12:30:26;7.80;;;5.85;;
45326;SDS011;31062;49.678;24.560;2023-05-25T12:33:13;8.70;;;6.07;;
45326;SDS011;31062;49.678;24.560;2023-05-25T12:35:59;9.45;;;6.60;;
45326;SDS011;31062;49.678;24.560;2023-05-25T12:38:58;6.93;;;4.50;;
45326;SDS011;31062;49.678;24.560;2023-05-25T12:41:45;4.70;;;4.18;;
45326;SDS011;31062;49.678;24.560;2023-05-25T12:44:41;7.13;;;3.55;;
45326;SDS011;31062;49.678;24.560;2023-05-25T12:47:45;5.47;;;3.78;;
45326;SDS011;31062;49.678;24.560;2023-05-25T12:50:55;5.50;;;3.20;;
45326;SDS011;31062;49.678;24.560;2023-05-25T12:56:57;4.70;;;3.53;;
45326;SDS011;31062;49.678;24.560;2023-05-25T12:59:46;6.43;;;3.08;;
45326;SDS011;31062;49.678;24.560;2023-05-25T13:02:34;4.80;;;3.15;;
45326;SDS011;31062;49.678;24.560;2023-05-25T13:08:16;9.68;;;3.20;;
45326;SDS011;31062;49.678;24.560;2023-05-25T13:11:13;5.47;;;2.75;;
45326;SDS011;31062;49.678;24.560;2023-05-25T13:14:12;3.80;;;3.10;;
45326;SDS011;31062;49.678;24.560;2023-05-25T13:17:04;3.67;;;2.72;;
45326;SDS011;31062;49.678;24.560;2023-05-25T13:19:53;2.42;;;2.20;;
45326;SDS011;31062;49.678;24.560;2023-05-25T13:22:43;5.18;;;2.60;;
45326;SDS011;31062;49.678;24.560;2023-05-25T13:25:39;3.50;;;2.20;;
45326;SDS011;31062;49.678;24.560;2023-05-25T13:28:29;5.35;;;3.03;;
45326;SDS011;31062;49.678;24.560;2023-05-25T13:31:18;4.28;;;2.60;;
45326;SDS011;31062;49.678;24.560;2023-05-25T13:34:11;10.45;;;3.03;;
45326;SDS011;31062;49.678;24.560;2023-05-25T13:37:08;3.60;;;3.15;;
45326;SDS011;31062;49.678;24.560;2023-05-25T13:39:58;3.35;;;3.03;;
45326;SDS011;31062;49.678;24.560;2023-05-25T13:42:58;3.20;;;2.85;;
45326;SDS011;31062;49.678;24.560;2023-05-25T13:45:52;3.60;;;2.50;;
45326;SDS011;31062;49.678;24.560;2023-05-25T13:48:41;2.50;;;2.30;;
45326;SDS011;31062;49.678;24.560;2023-05-25T13:51:50;4.13;;;2.90;;
45326;SDS011;31062;49.678;24.560;2023-05-25T13:54:53;4.85;;;3.45;;
45326;SDS011;31062;49.678;24.560;2023-05-25T13:57:50;5.28;;;3.10;;
45326;SDS011;31062;49.678;24.560;2023-05-25T14:00:41;5.65;;;3.42;;
45326;SDS011;31062;49.678;24.560;2023-05-25T14:03:34;4.13;;;3.00;;
45326;SDS011;31062;49.678;24.560;2023-05-25T14:06:21;5.97;;;3.78;;
45326;SDS011;31062;49.678;24.560;2023-05-25T14:09:13;4.88;;;4.40;;
45326;SDS011;31062;49.678;24.560;2023-05-25T14:12:06;5.75;;;4.22;;
45326;SDS011;31062;49.678;24.560;2023-05-25T14:14:56;4.18;;;3.88;;
45326;SDS011;31062;49.678;24.560;2023-05-25T14:17:47;4.20;;;3.53;;
45326;SDS011;31062;49.678;24.560;2023-05-25T14:20:35;10.60;;;7.13;;
45326;SDS011;31062;49.678;24.560;2023-05-25T14:23:26;8.02;;;4.88;;
45326;SDS011;31062;49.678;24.560;2023-05-25T14:26:25;4.50;;;3.97;;
45326;SDS011;31062;49.678;24.560;2023-05-25T14:29:21;5.35;;;4.38;;
45326;SDS011;31062;49.678;24.560;2023-05-25T14:32:14;5.95;;;4.25;;
45326;SDS011;31062;49.678;24.560;2023-05-25T14:35:05;6.40;;;4.90;;
45326;SDS011;31062;49.678;24.560;2023-05-25T14:37:56;5.07;;;4.57;;
45326;SDS011;31062;49.678;24.560;2023-05-25T14:40:48;5.85;;;4.00;;
45326;SDS011;31062;49.678;24.560;2023-05-25T14:43:40;5.47;;;3.60;;
45326;SDS011;31062;49.678;24.560;2023-05-25T14:46:37;7.88;;;3.80;;
45326;SDS011;31062;49.678;24.560;2023-05-25T14:49:59;6.15;;;4.40;;
45326;SDS011;31062;49.678;24.560;2023-05-25T14:52:47;5.82;;;4.22;;
45326;SDS011;31062;49.678;24.560;2023-05-25T14:55:35;4.97;;;4.32;;
45326;SDS011;31062;49.678;24.560;2023-05-25T14:58:21;4.30;;;3.80;;
45326;SDS011;31062;49.678;24.560;2023-05-25T15:01:10;4.20;;;3.80;;
45326;SDS011;31062;49.678;24.560;2023-05-25T15:04:01;4.43;;;4.00;;
45326;SDS011;31062;49.678;24.560;2023-05-25T15:07:04;4.25;;;3.85;;
45326;SDS011;31062;49.678;24.560;2023-05-25T15:10:03;9.55;;;3.83;;
45326;SDS011;31062;49.678;24.560;2023-05-25T15:12:54;7.05;;;4.28;;
45326;SDS011;31062;49.678;24.560;2023-05-25T15:18:46;5.80;;;5.15;;
45326;SDS011;31062;49.678;24.560;2023-05-25T15:21:36;4.80;;;4.20;;
45326;SDS011;31062;49.678;24.560;2023-05-25T15:24:21;4.25;;;3.47;;
45326;SDS011;31062;49.678;24.560;2023-05-25T15:27:13;5.50;;;3.45;;
45326;SDS011;31062;49.678;24.560;2023-05-25T15:30:15;5.90;;;3.10;;
45326;SDS011;31062;49.678;24.560;2023-05-25T15:33:06;5.85;;;3.03;;
45326;SDS011;31062;49.678;24.560;2023-05-25T15:36:01;7.30;;;3.30;;
45326;SDS011;31062;49.678;24.560;2023-05-25T15:38:56;8.32;;;3.20;;
45326;SDS011;31062;49.678;24.560;2023-05-25T15:41:48;4.07;;;2.75;;
45326;SDS011;31062;49.678;24.560;2023-05-25T15:44:33;3.65;;;3.00;;
45326;SDS011;31062;49.678;24.560;2023-05-25T15:47:24;6.22;;;3.22;;
45326;SDS011;31062;49.678;24.560;2023-05-25T15:50:11;8.15;;;3.92;;
45326;SDS011;31062;49.678;24.560;2023-05-25T15:52:56;5.53;;;3.50;;
45326;SDS011;31062;49.678;24.560;2023-05-25T15:55:42;5.10;;;3.80;;
45326;SDS011;31062;49.678;24.560;2023-05-25T15:58:28;11.23;;;3.55;;
45326;SDS011;31062;49.678;24.560;2023-05-25T16:01:15;5.40;;;3.58;;
45326;SDS011;31062;49.678;24.560;2023-05-25T16:04:08;8.48;;;4.38;;
45326;SDS011;31062;49.678;24.560;2023-05-25T16:06:56;10.07;;;4.05;;
45326;SDS011;31062;49.678;24.560;2023-05-25T16:09:50;5.85;;;4.35;;
45326;SDS011;31062;49.678;24.560;2023-05-25T16:12:42;5.25;;;4.28;;
45326;SDS011;31062;49.678;24.560;2023-05-25T16:15:39;6.57;;;3.72;;
45326;SDS011;31062;49.678;24.560;2023-05-25T16:18:26;5.55;;;4.25;;
45326;SDS011;31062;49.678;24.560;2023-05-25T16:21:16;6.78;;;3.78;;
45326;SDS011;31062;49.678;24.560;2023-05-25T16:24:05;4.93;;;3.88;;
45326;SDS011;31062;49.678;24.560;2023-05-25T16:26:51;5.32;;;3.40;;
45326;SDS011;31062;49.678;24.560;2023-05-25T16:29:37;8.25;;;4.38;;
45326;SDS011;31062;49.678;24.560;2023-05-25T16:32:22;5.65;;;3.90;;
45326;SDS011;31062;49.678;24.560;2023-05-25T16:35:07;7.03;;;3.60;;
45326;SDS011;31062;49.678;24.560;2023-05-25T16:37:53;7.18;;;4.05;;
45326;SDS011;31062;49.678;24.560;2023-05-25T16:40:45;8.23;;;4.70;;
45326;SDS011;31062;49.678;24.560;2023-05-25T16:43:34;6.72;;;4.47;;
45326;SDS011;31062;49.678;24.560;2023-05-25T16:46:19;9.07;;;5.18;;
45326;SDS011;31062;49.678;24.560;2023-05-25T16:49:05;8.77;;;5.40;;